Terminal Aerodrome Forecast
Issued by NWS Pocatello, ID

Home | Current Version | Previous Version | Text Only | Print | Product List | Glossary On
Versions: 1 2 3 4 5 6 7 8 9 10 11 12 13 14 15
000
FTUS45 KPIH 271120
TAFBYI
TAF
KBYI 271120Z 2712/2812 26008KT P6SM SCT100
     FM271500 28013G23KT P6SM SCT080
     FM280200 24007KT P6SM FEW200=

USA.gov is the U.S. government's official web portal to all federal, state and local government web resources and services.